Time;durP1;ratioP1;P1;durP2;ratioP2;P2;SDS_P1;SDS_P2;PMS_P1;PMS_P2;Temp;Humidity;BMP_temperature;BMP_pressure;BME280_temperature;BME280_humidity;BME280_pressure;Samples;Min_cycle;Max_cycle;Signal;HPM_P1;HPM_P2
2024/03/06 00:02:07;;;;;;;64.75;26.42;;;;;;;-141.50;100.00;63355.56;5008873;28;20202;-81
2024/03/06 00:04:34;;;;;;;62.55;26.27;;;;;;;-141.50;100.00;63355.56;4990767;28;20045;-81
2024/03/06 00:07:01;;;;;;;61.10;24.83;;;;;;;-141.50;100.00;63355.56;4988163;28;20043;-82
2024/03/06 00:09:28;;;;;;;56.63;23.98;;;;;;;-141.50;100.00;63355.56;5007753;28;20114;-81
2024/03/06 00:11:55;;;;;;;60.83;23.95;;;;;;;-141.50;100.00;63355.56;5008054;28;20061;-81
2024/03/06 00:14:22;;;;;;;55.78;24.05;;;;;;;-141.50;100.00;63355.56;5008861;28;20119;-81
2024/03/06 00:16:50;;;;;;;60.58;23.63;;;;;;;-141.50;100.00;63355.56;4978209;28;20072;-79
2024/03/06 00:19:17;;;;;;;58.17;24.42;;;;;;;-141.50;100.00;63355.56;5008998;28;20452;-80
2024/03/06 00:21:44;;;;;;;57.80;25.05;;;;;;;-141.50;100.00;63355.56;5004307;28;20050;-79
2024/03/06 00:24:12;;;;;;;63.97;25.83;;;;;;;-141.50;100.00;63355.56;5006138;28;20132;-79
2024/03/06 00:26:41;;;;;;;59.72;25.55;;;;;;;-141.50;100.00;63355.56;5006991;28;20069;-78
2024/03/06 00:29:08;;;;;;;64.05;24.63;;;;;;;-141.50;100.00;63355.56;4973836;28;20401;-78
2024/03/06 00:31:36;;;;;;;63.28;25.08;;;;;;;-141.50;100.00;63355.56;4970338;28;20042;-78
2024/03/06 00:34:02;;;;;;;57.92;24.15;;;;;;;-141.50;100.00;63355.56;4980213;28;20408;-79
2024/03/06 00:36:29;;;;;;;56.60;24.08;;;;;;;-141.50;100.00;63355.56;4984322;28;20048;-80
2024/03/06 00:38:56;;;;;;;63.72;25.60;;;;;;;-141.50;100.00;63355.56;4989173;28;20068;-80
2024/03/06 00:41:23;;;;;;;55.20;23.85;;;;;;;-141.50;100.00;63355.56;5010309;28;20253;-79
2024/03/06 00:43:50;;;;;;;56.70;23.83;;;;;;;-141.50;100.00;63355.56;4991747;28;20145;-79
2024/03/06 00:46:16;;;;;;;60.17;24.20;;;;;;;-141.50;100.00;63355.56;5009370;28;20281;-79
2024/03/06 00:48:43;;;;;;;60.28;25.15;;;;;;;-141.50;100.00;63355.56;4998100;28;20048;-79
2024/03/06 00:51:10;;;;;;;60.03;23.92;;;;;;;-141.50;100.00;63355.56;4986064;28;20045;-79
2024/03/06 00:53:36;;;;;;;59.92;25.25;;;;;;;-141.50;100.00;63355.56;4989334;28;20707;-81
2024/03/06 00:56:04;;;;;;;62.40;25.65;;;;;;;-141.50;100.00;63355.56;4989688;28;20037;-79
2024/03/06 00:58:30;;;;;;;58.28;24.02;;;;;;;-141.50;100.00;63355.56;5009291;28;20054;-82
2024/03/06 01:00:58;;;;;;;58.60;24.90;;;;;;;-141.50;100.00;63355.56;4990325;28;20060;-79
2024/03/06 01:03:25;;;;;;;55.67;24.15;;;;;;;-141.50;100.00;63355.56;5008320;28;20324;-79
2024/03/06 01:05:55;;;;;;;59.80;24.08;;;;;;;-141.50;100.00;63355.56;5006744;28;20524;-81
2024/03/06 01:08:24;;;;;;;58.65;24.90;;;;;;;-141.50;100.00;63355.56;5000513;28;20049;-81
2024/03/06 01:10:54;;;;;;;59.88;23.88;;;;;;;-141.50;100.00;63355.56;4989680;28;20129;-80
2024/03/06 01:13:20;;;;;;;63.10;24.05;;;;;;;-141.50;100.00;63355.56;5008146;28;20508;-82
2024/03/06 01:15:47;;;;;;;58.97;24.55;;;;;;;-141.50;100.00;63355.56;4998411;28;20039;-79
2024/03/06 01:18:14;;;;;;;55.60;23.73;;;;;;;-141.50;100.00;63355.56;5008970;28;20139;-80
2024/03/06 01:20:40;;;;;;;58.92;23.73;;;;;;;-141.50;100.00;63355.56;4990116;28;20045;-79
2024/03/06 01:23:07;;;;;;;60.10;23.58;;;;;;;-141.50;100.00;63355.56;4992376;28;20073;-81
2024/03/06 01:25:34;;;;;;;57.38;23.27;;;;;;;-141.50;100.00;63355.56;4991503;28;20508;-78
2024/03/06 01:28:02;;;;;;;53.78;23.05;;;;;;;-141.50;100.00;63355.56;4990663;28;20065;-83
2024/03/06 01:30:29;;;;;;;50.90;21.60;;;;;;;-141.50;100.00;63355.56;5001363;28;20038;-79
2024/03/06 01:32:55;;;;;;;50.15;20.08;;;;;;;-141.50;100.00;63355.56;5008103;28;20049;-80
2024/03/06 01:35:23;;;;;;;49.97;20.83;;;;;;;-141.50;100.00;63355.56;4989761;28;20103;-80
2024/03/06 01:37:50;;;;;;;48.50;19.73;;;;;;;-141.50;100.00;63355.56;5007215;28;20042;-82
2024/03/06 01:40:17;;;;;;;44.65;19.33;;;;;;;-141.50;100.00;63355.56;4990008;28;20053;-79
2024/03/06 01:42:48;;;;;;;40.75;18.60;;;;;;;-141.50;100.00;63355.56;5006502;28;20136;-80
2024/03/06 01:45:15;;;;;;;46.22;20.00;;;;;;;-141.50;100.00;63355.56;4996561;28;20062;-80
2024/03/06 01:47:42;;;;;;;48.22;19.65;;;;;;;-141.50;100.00;63355.56;4989216;28;20065;-78
2024/03/06 01:50:10;;;;;;;47.22;19.42;;;;;;;-141.50;100.00;63355.56;4990164;28;20056;-78
2024/03/06 01:52:38;;;;;;;44.38;18.33;;;;;;;-141.50;100.00;63355.56;5008131;28;20238;-82
2024/03/06 01:55:07;;;;;;;51.55;19.88;;;;;;;-141.50;100.00;63355.56;5007713;28;20064;-80
2024/03/06 01:57:34;;;;;;;44.50;19.17;;;;;;;-141.50;100.00;63355.56;4993406;28;20140;-79
2024/03/06 02:00:03;;;;;;;42.65;19.50;;;;;;;-141.50;100.00;63355.56;5007750;28;20065;-78
2024/03/06 02:02:30;;;;;;;44.35;19.33;;;;;;;-141.50;100.00;63355.56;5001116;28;20050;-80
2024/03/06 02:04:59;;;;;;;49.33;19.55;;;;;;;-141.50;100.00;63355.56;4988576;28;20132;-78
2024/03/06 02:07:32;;;;;;;44.97;19.30;;;;;;;-141.50;100.00;63355.56;5006262;28;20042;-81
2024/03/06 02:09:58;;;;;;;52.60;18.88;;;;;;;-141.50;100.00;63355.56;5006201;28;20057;-80
2024/03/06 02:12:25;;;;;;;46.85;18.92;;;;;;;-141.50;100.00;63355.56;5013182;28;20046;-80
2024/03/06 02:14:54;;;;;;;46.53;19.67;;;;;;;-141.50;100.00;63355.56;5007500;28;20064;-81
2024/03/06 02:17:21;;;;;;;42.97;18.52;;;;;;;-141.50;100.00;63355.56;4986654;28;20054;-79
2024/03/06 02:19:48;;;;;;;44.45;18.52;;;;;;;-141.50;100.00;63355.56;5001276;28;20057;-81
2024/03/06 02:22:15;;;;;;;43.22;19.42;;;;;;;-141.50;100.00;63355.56;5006223;28;20057;-80
2024/03/06 02:24:48;;;;;;;49.35;20.13;;;;;;;-141.50;100.00;63355.56;5006349;28;20141;-80
2024/03/06 02:27:16;;;;;;;47.00;19.92;;;;;;;-141.50;100.00;63355.56;5007503;28;20061;-79
2024/03/06 02:29:43;;;;;;;44.80;20.00;;;;;;;-141.50;100.00;63355.56;5006028;28;20053;-81
2024/03/06 02:32:13;;;;;;;52.72;19.98;;;;;;;-141.50;100.00;63355.56;5006417;28;20138;-80
2024/03/06 02:34:40;;;;;;;47.25;20.15;;;;;;;-141.50;100.00;63355.56;4983772;28;20137;-81
2024/03/06 02:37:07;;;;;;;45.00;19.80;;;;;;;-141.50;100.00;63355.56;5003817;28;20088;-80
2024/03/06 02:39:34;;;;;;;49.45;20.02;;;;;;;-141.50;100.00;63355.56;4995321;28;20056;-79
2024/03/06 02:42:01;;;;;;;49.70;20.52;;;;;;;-141.50;100.00;63355.56;4981961;28;20053;-81
2024/03/06 02:44:28;;;;;;;45.95;19.30;;;;;;;-141.50;100.00;63355.56;4983896;28;20049;-82
2024/03/06 02:46:55;;;;;;;43.45;18.75;;;;;;;-141.50;100.00;63355.56;4990187;28;20554;-79
2024/03/06 02:49:22;;;;;;;48.58;20.00;;;;;;;-141.50;100.00;63355.56;5006768;28;20264;-79
2024/03/06 02:51:48;;;;;;;45.05;19.08;;;;;;;-141.50;100.00;63355.56;4995905;28;20465;-79
2024/03/06 02:54:15;;;;;;;48.53;19.73;;;;;;;-141.50;100.00;63355.56;4988568;28;20062;-78
2024/03/06 02:56:42;;;;;;;48.05;18.70;;;;;;;-141.50;100.00;63355.56;4995091;28;20124;-79
2024/03/06 02:59:08;;;;;;;43.55;19.65;;;;;;;-141.50;100.00;63355.56;4987290;28;20076;-79
2024/03/06 03:01:35;;;;;;;42.47;19.17;;;;;;;-141.50;100.00;63355.56;4989063;28;20464;-78
2024/03/06 03:04:02;;;;;;;40.50;18.52;;;;;;;-141.50;100.00;63355.56;5008418;28;20042;-78
2024/03/06 03:06:29;;;;;;;48.38;20.90;;;;;;;-141.50;100.00;63355.56;4988097;28;20050;-80
2024/03/06 03:08:56;;;;;;;42.60;19.38;;;;;;;-141.50;100.00;63355.56;4975492;28;20061;-79
2024/03/06 03:11:23;;;;;;;42.90;19.20;;;;;;;-141.50;100.00;63355.56;5004287;28;20149;-80
2024/03/06 03:13:49;;;;;;;44.83;19.52;;;;;;;-141.50;100.00;63355.56;4989973;28;20077;-80
2024/03/06 03:16:20;;;;;;;52.25;20.88;;;;;;;-141.50;100.00;63355.56;4988257;28;20060;-78
2024/03/06 03:18:49;;;;;;;48.40;19.95;;;;;;;-141.50;100.00;63355.56;5005115;28;20128;-81
2024/03/06 03:21:16;;;;;;;42.30;18.58;;;;;;;-141.50;100.00;63355.56;4987492;28;20051;-80
2024/03/06 03:23:42;;;;;;;43.15;18.95;;;;;;;-141.50;100.00;63355.56;5007822;28;20307;-81
2024/03/06 03:26:10;;;;;;;48.75;20.23;;;;;;;-141.50;100.00;63355.56;5010973;28;20092;-80
2024/03/06 03:28:39;;;;;;;45.53;20.17;;;;;;;-141.50;100.00;63355.56;4989987;28;20146;-79
2024/03/06 03:31:10;;;;;;;44.72;19.55;;;;;;;-141.50;100.00;63355.56;4987937;28;20697;-80
2024/03/06 03:33:41;;;;;;;47.90;19.48;;;;;;;-141.50;100.00;63355.56;5011740;28;20144;-79
2024/03/06 03:36:08;;;;;;;45.22;19.92;;;;;;;-141.50;100.00;63355.56;5004519;28;20065;-79
2024/03/06 03:38:38;;;;;;;50.33;19.00;;;;;;;-141.50;100.00;63355.56;4985144;28;20496;-82
2024/03/06 03:41:12;;;;;;;51.63;20.20;;;;;;;-141.50;100.00;63355.56;5004756;28;20524;-79
2024/03/06 03:43:40;;;;;;;55.17;20.47;;;;;;;-141.50;100.00;63355.56;4987492;28;20570;-82
2024/03/06 03:46:08;;;;;;;49.92;20.52;;;;;;;-141.50;100.00;63355.56;4988581;28;20056;-80
2024/03/06 03:48:36;;;;;;;46.72;19.42;;;;;;;-141.50;100.00;63355.56;5006537;28;20112;-81
2024/03/06 03:51:07;;;;;;;49.78;20.30;;;;;;;-141.50;100.00;63355.56;5006841;28;20113;-80
2024/03/06 03:53:35;;;;;;;52.80;20.02;;;;;;;-141.50;100.00;63355.56;5010100;28;20057;-81
2024/03/06 03:56:03;;;;;;;45.72;20.27;;;;;;;-141.50;100.00;63355.56;5008972;28;20510;-82
2024/03/06 03:58:30;;;;;;;52.45;20.05;;;;;;;-141.50;100.00;63355.56;5002897;28;20058;-80
2024/03/06 04:00:57;;;;;;;52.00;20.58;;;;;;;-141.50;100.00;63355.56;5007807;28;20073;-80
2024/03/06 04:03:24;;;;;;;55.20;20.92;;;;;;;-141.50;100.00;63355.56;4991997;28;20058;-81
2024/03/06 04:05:51;;;;;;;50.88;21.05;;;;;;;-141.50;100.00;63355.56;5008591;28;20058;-79
2024/03/06 04:08:18;;;;;;;49.90;20.85;;;;;;;-141.50;100.00;63355.56;4996876;28;20062;-79
2024/03/06 04:10:45;;;;;;;49.05;20.73;;;;;;;-141.50;100.00;63355.56;5011838;28;20042;-80
2024/03/06 04:13:15;;;;;;;51.58;20.08;;;;;;;-141.50;100.00;63355.56;4994667;28;20065;-80
2024/03/06 04:15:42;;;;;;;56.00;21.23;;;;;;;-141.50;100.00;63355.56;4992784;28;20648;-81
2024/03/06 04:18:09;;;;;;;53.30;21.40;;;;;;;-141.50;100.00;63355.56;5011005;28;20048;-79
2024/03/06 04:20:35;;;;;;;49.75;21.10;;;;;;;-141.50;100.00;63355.56;5000378;28;20131;-81
2024/03/06 04:23:02;;;;;;;52.17;22.23;;;;;;;-141.50;100.00;63355.56;4992929;28;20046;-82
2024/03/06 04:25:29;;;;;;;48.88;21.63;;;;;;;-141.50;100.00;63355.56;5010491;28;20095;-80
2024/03/06 04:27:56;;;;;;;59.60;21.98;;;;;;;-141.50;100.00;63355.56;4987623;28;20500;-82
2024/03/06 04:30:23;;;;;;;52.20;20.98;;;;;;;-141.50;100.00;63355.56;5009768;28;20643;-81
2024/03/06 04:32:49;;;;;;;54.63;21.13;;;;;;;-141.50;100.00;63355.56;4991272;28;20057;-80
2024/03/06 04:35:16;;;;;;;44.17;20.25;;;;;;;-141.50;100.00;63355.56;5007194;28;20116;-81
2024/03/06 04:37:43;;;;;;;48.90;20.65;;;;;;;-141.50;100.00;63355.56;5007443;28;20145;-79
2024/03/06 04:40:11;;;;;;;52.47;20.85;;;;;;;-141.50;100.00;63355.56;5007384;28;20360;-80
2024/03/06 04:42:38;;;;;;;48.40;19.95;;;;;;;-141.50;100.00;63355.56;5010732;28;20100;-82
2024/03/06 04:45:12;;;;;;;53.55;20.35;;;;;;;-141.50;100.00;63355.56;5007573;28;20068;-81
2024/03/06 04:47:39;;;;;;;50.85;20.00;;;;;;;-141.50;100.00;63355.56;5002361;28;20060;-81
2024/03/06 04:50:14;;;;;;;51.65;20.60;;;;;;;-141.50;100.00;63355.56;5006620;28;20049;-80
2024/03/06 04:52:41;;;;;;;50.35;19.52;;;;;;;-141.50;100.00;63355.56;4989311;28;20061;-82
2024/03/06 04:55:12;;;;;;;51.22;20.55;;;;;;;-141.50;100.00;63355.56;5007264;28;20046;-82
2024/03/06 04:57:42;;;;;;;57.55;21.02;;;;;;;-141.50;100.00;63355.56;4986967;28;20064;-79
2024/03/06 05:00:10;;;;;;;46.15;20.15;;;;;;;-141.50;100.00;63355.56;4986814;28;20125;-79
2024/03/06 05:02:37;;;;;;;50.28;20.95;;;;;;;-141.50;100.00;63355.56;5007601;28;20503;-80
2024/03/06 05:05:22;;;;;;;45.70;20.17;;;;;;;-141.50;100.00;63355.56;4990130;28;20496;-79
2024/03/06 05:08:07;;;;;;;51.65;19.80;;;;;;;-141.50;100.00;63355.56;5009006;28;20125;-79
2024/03/06 05:10:51;;;;;;;49.70;20.33;;;;;;;-141.50;100.00;63355.56;4976602;28;20050;-79
2024/03/06 05:13:35;;;;;;;50.10;20.58;;;;;;;-141.50;100.00;63355.56;4989967;28;20046;-79
2024/03/06 05:16:22;;;;;;;60.10;21.00;;;;;;;-141.50;100.00;63355.56;4988883;28;20133;-79
2024/03/06 05:19:06;;;;;;;47.03;19.42;;;;;;;-141.50;100.00;63355.56;5005666;28;20042;-81
2024/03/06 05:21:51;;;;;;;51.03;21.17;;;;;;;-141.50;100.00;63355.56;5013755;28;20458;-83
2024/03/06 05:24:35;;;;;;;44.33;20.60;;;;;;;-141.50;100.00;63355.56;5007094;28;20064;-81
2024/03/06 05:27:20;;;;;;;49.53;21.83;;;;;;;-141.50;100.00;63355.56;4978550;28;20508;-81
2024/03/06 05:30:05;;;;;;;51.20;20.95;;;;;;;-141.50;100.00;63355.56;5007651;28;20147;-81
2024/03/06 05:32:49;;;;;;;59.67;22.10;;;;;;;-141.50;100.00;63355.56;4972387;28;20431;-82
2024/03/06 05:35:34;;;;;;;42.57;16.37;;;;;;;-141.50;100.00;63355.56;4995407;28;20034;-80
2024/03/06 05:38:18;;;;;;;50.72;19.00;;;;;;;-141.50;100.00;63355.56;4989965;28;20431;-81
2024/03/06 05:41:03;;;;;;;49.17;20.67;;;;;;;-141.50;100.00;63355.56;5006483;28;20069;-80
2024/03/06 05:43:47;;;;;;;52.75;20.10;;;;;;;-141.50;100.00;63355.56;5001800;28;20485;-81
2024/03/06 05:46:31;;;;;;;50.05;20.88;;;;;;;-141.50;100.00;63355.56;5002037;28;20610;-80
2024/03/06 05:49:16;;;;;;;51.00;21.08;;;;;;;-141.50;100.00;63355.56;5006975;28;20507;-80
2024/03/06 05:52:00;;;;;;;53.42;20.95;;;;;;;-141.50;100.00;63355.56;5007771;28;20512;-81
2024/03/06 05:54:44;;;;;;;48.13;20.33;;;;;;;-141.50;100.00;63355.56;5005728;28;20049;-81
2024/03/06 05:57:28;;;;;;;54.35;20.13;;;;;;;-141.50;100.00;63355.56;5006944;28;20108;-80
2024/03/06 06:00:13;;;;;;;44.55;20.25;;;;;;;-141.50;100.00;63355.56;4989241;28;20113;-81
2024/03/06 06:02:42;;;;;;;50.38;20.17;;;;;;;-141.50;100.00;63355.56;4983379;28;20768;-81
2024/03/06 06:05:09;;;;;;;47.20;19.33;;;;;;;-141.50;100.00;63355.56;4996078;28;20128;-79
2024/03/06 06:07:52;;;;;;;60.70;22.90;;;;;;;-141.50;100.00;63355.56;4983843;28;20057;-79
2024/03/06 06:10:19;;;;;;;63.40;26.02;;;;;;;-141.50;100.00;63355.56;4988106;28;20532;-79
2024/03/06 06:12:49;;;;;;;56.80;22.67;;;;;;;-141.50;100.00;63355.56;5003200;28;20062;-78
2024/03/06 06:15:16;;;;;;;53.53;22.10;;;;;;;-141.50;100.00;63355.56;4989531;28;20432;-77
2024/03/06 06:17:44;;;;;;;58.85;22.08;;;;;;;-141.50;100.00;63355.56;4980337;28;20631;-78
2024/03/06 06:20:14;;;;;;;57.85;22.10;;;;;;;-141.50;100.00;63355.56;5007950;28;20050;-78
2024/03/06 06:22:43;;;;;;;56.30;22.23;;;;;;;-141.50;100.00;63355.56;4986856;28;20042;-77
2024/03/06 06:25:09;;;;;;;52.33;22.05;;;;;;;-141.50;100.00;63355.56;5008053;28;20423;-78
2024/03/06 06:27:38;;;;;;;61.50;23.88;;;;;;;-141.50;100.00;63355.56;4994213;28;20042;-77
2024/03/06 06:30:06;;;;;;;49.45;21.25;;;;;;;-141.50;100.00;63355.56;4992827;28;20057;-78
2024/03/06 06:32:34;;;;;;;55.80;21.40;;;;;;;-141.50;100.00;63355.56;4979407;28;20054;-77
2024/03/06 06:35:02;;;;;;;54.55;21.77;;;;;;;-141.50;100.00;63355.56;5005342;28;20050;-78
2024/03/06 06:37:29;;;;;;;55.65;21.70;;;;;;;-141.50;100.00;63355.56;4999236;28;20509;-78
2024/03/06 06:39:56;;;;;;;62.95;23.42;;;;;;;-141.50;100.00;63355.56;5000454;28;20058;-77
2024/03/06 06:42:24;;;;;;;61.00;23.20;;;;;;;-141.50;100.00;63355.56;4979067;28;20038;-81
2024/03/06 06:44:50;;;;;;;65.13;24.00;;;;;;;-141.50;100.00;63355.56;5006013;28;20074;-79
2024/03/06 06:47:17;;;;;;;62.10;23.45;;;;;;;-141.50;100.00;63355.56;5005810;28;20594;-79
2024/03/06 06:49:44;;;;;;;61.70;23.60;;;;;;;-141.50;100.00;63355.56;4977992;28;20111;-79
2024/03/06 06:52:11;;;;;;;61.08;22.50;;;;;;;-141.50;100.00;63355.56;5004475;28;20038;-78
2024/03/06 06:54:38;;;;;;;58.50;23.60;;;;;;;-141.50;100.00;63355.56;4984814;28;20054;-79
2024/03/06 06:57:05;;;;;;;67.25;25.70;;;;;;;-141.50;100.00;63355.56;4985550;28;20124;-80
2024/03/06 06:59:31;;;;;;;68.53;24.70;;;;;;;-141.50;100.00;63355.56;4999226;28;20104;-78
2024/03/06 07:01:58;;;;;;;62.22;24.15;;;;;;;-141.50;100.00;63355.56;5006833;28;20707;-78
2024/03/06 07:04:25;;;;;;;60.00;22.73;;;;;;;-141.50;100.00;63355.56;4986893;28;20041;-79
2024/03/06 07:06:52;;;;;;;60.72;24.23;;;;;;;-141.50;100.00;63355.56;5007891;28;20058;-78
2024/03/06 07:09:19;;;;;;;62.15;24.13;;;;;;;-141.50;100.00;63355.56;5008289;28;20054;-77
2024/03/06 07:11:46;;;;;;;58.65;23.00;;;;;;;-141.50;100.00;63355.56;4988784;28;20042;-76
2024/03/06 07:14:13;;;;;;;59.65;22.67;;;;;;;-141.50;100.00;63355.56;4991170;28;20047;-77
2024/03/06 07:16:44;;;;;;;58.00;23.63;;;;;;;-141.50;100.00;63355.56;4989268;28;20065;-78
2024/03/06 07:19:11;;;;;;;64.00;22.13;;;;;;;-141.50;100.00;63355.56;4990810;28;20093;-78
2024/03/06 07:21:39;;;;;;;59.65;22.77;;;;;;;-141.50;100.00;63355.56;4969916;28;20055;-78
2024/03/06 07:24:06;;;;;;;55.33;21.83;;;;;;;-141.50;100.00;63355.56;4985034;28;20144;-78
2024/03/06 07:26:33;;;;;;;58.50;23.38;;;;;;;-141.50;100.00;63355.56;5008794;28;20053;-77
2024/03/06 07:29:01;;;;;;;56.88;22.42;;;;;;;-141.50;100.00;63355.56;4991002;28;20539;-80
2024/03/06 07:31:28;;;;;;;57.22;22.85;;;;;;;-141.50;100.00;63355.56;5001010;28;20066;-79
2024/03/06 07:33:55;;;;;;;56.97;22.05;;;;;;;-141.50;100.00;63355.56;4985884;28;20593;-78
2024/03/06 07:36:22;;;;;;;52.60;22.10;;;;;;;-141.50;100.00;63355.56;5009571;28;20046;-80
2024/03/06 07:38:49;;;;;;;62.67;22.80;;;;;;;-141.50;100.00;63355.56;5000985;28;20529;-79
2024/03/06 07:41:15;;;;;;;50.45;20.42;;;;;;;-141.50;100.00;63355.56;4991169;28;20171;-79
2024/03/06 07:43:43;;;;;;;54.80;22.02;;;;;;;-141.50;100.00;63355.56;5007078;28;20050;-79
2024/03/06 07:46:13;;;;;;;55.58;21.98;;;;;;;-141.50;100.00;63355.56;4984371;28;20042;-80
2024/03/06 07:48:44;;;;;;;58.95;22.65;;;;;;;-141.50;100.00;63355.56;4983950;28;20053;-80
2024/03/06 07:51:10;;;;;;;53.17;21.67;;;;;;;-141.50;100.00;63355.56;5009242;28;20052;-79
2024/03/06 07:53:37;;;;;;;53.90;21.83;;;;;;;-141.50;100.00;63355.56;5008983;28;20112;-79
2024/03/06 07:56:04;;;;;;;53.83;22.23;;;;;;;-141.50;100.00;63355.56;4993642;28;20038;-79
2024/03/06 07:58:31;;;;;;;55.00;23.27;;;;;;;-141.50;100.00;63355.56;5009860;28;20053;-79
2024/03/06 08:00:59;;;;;;;56.95;22.15;;;;;;;-141.50;100.00;63355.56;5011294;28;20173;-80
2024/03/06 08:03:26;;;;;;;57.50;22.98;;;;;;;-141.50;100.00;63355.56;4999846;28;20953;-79
2024/03/06 08:05:53;;;;;;;57.10;23.45;;;;;;;-141.50;100.00;63355.56;4985700;28;20046;-78
2024/03/06 08:08:21;;;;;;;56.58;22.85;;;;;;;-141.50;100.00;63355.56;4984645;28;20049;-81
2024/03/06 08:10:48;;;;;;;55.30;21.92;;;;;;;-141.50;100.00;63355.56;5011993;28;20123;-80
2024/03/06 08:13:16;;;;;;;54.80;22.52;;;;;;;-141.50;100.00;63355.56;5009129;28;20050;-79
2024/03/06 08:15:44;;;;;;;56.78;23.38;;;;;;;-141.50;100.00;63355.56;4988200;28;20049;-79
2024/03/06 08:18:15;;;;;;;55.58;24.08;;;;;;;-141.50;100.00;63355.56;5006129;28;20518;-80
2024/03/06 08:20:42;;;;;;;51.88;22.17;;;;;;;-141.50;100.00;63355.56;4985417;28;20057;-81
2024/03/06 08:23:12;;;;;;;55.53;23.75;;;;;;;-141.50;100.00;63355.56;4990722;28;20144;-80
2024/03/06 08:25:39;;;;;;;60.35;24.13;;;;;;;-141.50;100.00;63355.56;5008775;28;20069;-80
2024/03/06 08:28:06;;;;;;;58.47;24.23;;;;;;;-141.50;100.00;63355.56;4990797;28;20296;-81
2024/03/06 08:30:32;;;;;;;61.40;23.98;;;;;;;-141.50;100.00;63355.56;5001361;28;20046;-79
2024/03/06 08:33:00;;;;;;;56.28;23.67;;;;;;;-141.50;100.00;63355.56;5006774;28;20124;-80
2024/03/06 08:35:27;;;;;;;54.90;23.38;;;;;;;-141.50;100.00;63355.56;4981477;28;20061;-79
2024/03/06 08:37:55;;;;;;;49.80;21.88;;;;;;;-141.50;100.00;63355.56;5004838;28;20065;-79
2024/03/06 08:40:23;;;;;;;60.05;23.30;;;;;;;-141.50;100.00;63355.56;4991975;28;20069;-79
2024/03/06 08:42:51;;;;;;;60.47;24.15;;;;;;;-141.50;100.00;63355.56;4990888;28;20129;-79
2024/03/06 08:45:18;;;;;;;58.60;23.45;;;;;;;-141.50;100.00;63355.56;5010475;28;20069;-79
2024/03/06 08:47:46;;;;;;;60.13;24.58;;;;;;;-141.50;100.00;63355.56;5008563;28;20419;-80
2024/03/06 08:50:14;;;;;;;56.97;22.77;;;;;;;-141.50;100.00;63355.56;4991584;28;20453;-78
2024/03/06 08:52:41;;;;;;;55.85;22.58;;;;;;;-141.50;100.00;63355.56;5002782;28;20419;-78
2024/03/06 08:55:09;;;;;;;57.03;23.75;;;;;;;-141.50;100.00;63355.56;5009032;28;20053;-80
2024/03/06 08:57:37;;;;;;;57.65;24.05;;;;;;;-141.50;100.00;63355.56;5001810;28;20129;-80
2024/03/06 09:00:10;;;;;;;57.10;22.67;;;;;;;-141.50;100.00;63355.56;5014655;28;20072;-78
2024/03/06 09:02:38;;;;;;;58.78;24.00;;;;;;;-141.50;100.00;63355.56;4993467;28;20136;-78
2024/03/06 09:05:10;;;;;;;62.05;24.50;;;;;;;-141.50;100.00;63355.56;5007883;28;20053;-78
2024/03/06 09:07:38;;;;;;;52.20;22.05;;;;;;;-141.50;100.00;63355.56;5007577;28;20475;-78
2024/03/06 09:10:08;;;;;;;57.38;21.83;;;;;;;-141.50;100.00;63355.56;5008014;28;20092;-79
2024/03/06 09:12:35;;;;;;;56.08;23.50;;;;;;;-141.50;100.00;63355.56;5001160;28;20049;-78
2024/03/06 09:15:03;;;;;;;50.97;21.73;;;;;;;-141.50;100.00;63355.56;4988683;28;20100;-77
2024/03/06 09:17:30;;;;;;;54.20;22.42;;;;;;;-141.50;100.00;63355.56;5008571;28;20129;-79
2024/03/06 09:19:57;;;;;;;48.92;21.17;;;;;;;-141.50;100.00;63355.56;4990291;28;20048;-81
2024/03/06 09:22:42;;;;;;;48.40;20.83;;;;;;;-141.50;100.00;63355.56;4992799;28;20042;-78
2024/03/06 09:25:13;;;;;;;51.05;21.05;;;;;;;-141.50;100.00;63355.56;4989322;28;20058;-78
2024/03/06 09:27:41;;;;;;;52.15;20.77;;;;;;;-141.50;100.00;63355.56;5008525;28;20045;-78
2024/03/06 09:30:09;;;;;;;44.30;18.40;;;;;;;-141.50;100.00;63355.56;5007104;28;20050;-79
2024/03/06 09:32:37;;;;;;;53.80;20.75;;;;;;;-141.50;100.00;63355.56;5008002;28;20056;-78
2024/03/06 09:35:06;;;;;;;47.85;19.40;;;;;;;-141.50;100.00;63355.56;5006609;28;20085;-78
2024/03/06 09:37:33;;;;;;;53.53;20.50;;;;;;;-141.50;100.00;63355.56;5004537;28;20441;-79
2024/03/06 09:40:00;;;;;;;55.25;22.42;;;;;;;-141.50;100.00;63355.56;4989056;28;20250;-78
2024/03/06 09:42:26;;;;;;;55.70;21.42;;;;;;;-141.50;100.00;63355.56;5007175;28;20060;-78
2024/03/06 09:44:53;;;;;;;47.22;21.17;;;;;;;-141.50;100.00;63355.56;5006075;28;20064;-78
2024/03/06 09:47:28;;;;;;;50.83;21.15;;;;;;;-141.50;100.00;63355.56;4992634;28;20140;-77
2024/03/06 09:49:55;;;;;;;52.75;21.75;;;;;;;-141.50;100.00;63355.56;4998386;28;20468;-79
2024/03/06 09:52:24;;;;;;;57.30;22.70;;;;;;;-141.50;100.00;63355.56;5005620;28;20070;-77
2024/03/06 09:54:54;;;;;;;54.50;21.63;;;;;;;-141.50;100.00;63355.56;4987786;28;20100;-79
2024/03/06 09:57:21;;;;;;;58.35;22.55;;;;;;;-141.50;100.00;63355.56;4986506;28;20069;-78
2024/03/06 09:59:48;;;;;;;48.15;20.63;;;;;;;-141.50;100.00;63355.56;4992161;28;20053;-78
2024/03/06 10:02:40;;;;;;;46.20;20.55;;;;;;;-141.50;100.00;63355.56;4986345;28;20148;-78
2024/03/06 10:05:21;;;;;;;52.33;21.60;;;;;;;-141.50;100.00;63355.56;5005009;28;20065;-79
2024/03/06 10:07:48;;;;;;;53.83;21.45;;;;;;;-141.50;100.00;63355.56;4987231;28;20053;-79
2024/03/06 10:10:15;;;;;;;50.03;20.67;;;;;;;-141.50;100.00;63355.56;5005519;28;20567;-78
2024/03/06 10:12:42;;;;;;;47.35;20.63;;;;;;;-141.50;100.00;63355.56;4988821;28;20046;-79
2024/03/06 10:15:12;;;;;;;54.25;21.50;;;;;;;-141.50;100.00;63355.56;4988001;28;20416;-80
2024/03/06 10:17:39;;;;;;;48.58;21.33;;;;;;;-141.50;100.00;63355.56;5012465;28;20105;-80
2024/03/06 10:20:16;;;;;;;48.00;21.65;;;;;;;-141.50;100.00;63355.56;5007015;28;20042;-81
2024/03/06 10:22:43;;;;;;;50.13;21.60;;;;;;;-141.50;100.00;63355.56;4989115;28;20128;-80
2024/03/06 10:25:10;;;;;;;50.90;21.58;;;;;;;-141.50;100.00;63355.56;5008833;28;20504;-79
2024/03/06 10:27:37;;;;;;;49.42;21.02;;;;;;;-141.50;100.00;63355.56;5008556;28;20112;-78
2024/03/06 10:30:06;;;;;;;50.75;22.65;;;;;;;-141.50;100.00;63355.56;5006336;28;20050;-81
2024/03/06 10:32:32;;;;;;;46.55;20.85;;;;;;;-141.50;100.00;63355.56;4988804;28;20480;-79
2024/03/06 10:35:00;;;;;;;46.83;21.25;;;;;;;-141.50;100.00;63355.56;5006873;28;20056;-78
2024/03/06 10:37:28;;;;;;;46.00;19.73;;;;;;;-141.50;100.00;63355.56;5010869;28;20061;-79
2024/03/06 10:40:01;;;;;;;51.83;21.15;;;;;;;-141.50;100.00;63355.56;4993485;28;20083;-80
2024/03/06 10:42:30;;;;;;;50.10;20.75;;;;;;;-141.50;100.00;63355.56;5007315;28;20062;-80
2024/03/06 10:44:59;;;;;;;48.22;21.02;;;;;;;-141.50;100.00;63355.56;4988415;28;20052;-81
2024/03/06 10:47:28;;;;;;;45.83;20.40;;;;;;;-141.50;100.00;63355.56;4989152;28;20049;-80
2024/03/06 10:49:59;;;;;;;42.97;20.35;;;;;;;-141.50;100.00;63355.56;5005539;28;20551;-81
2024/03/06 10:52:27;;;;;;;44.17;20.73;;;;;;;-141.50;100.00;63355.56;4991596;28;20165;-79
2024/03/06 10:54:58;;;;;;;44.83;20.55;;;;;;;-141.50;100.00;63355.56;4987597;28;20050;-80
2024/03/06 10:57:25;;;;;;;43.17;19.63;;;;;;;-141.50;100.00;63355.56;4999488;28;20042;-77
2024/03/06 10:59:52;;;;;;;45.97;20.58;;;;;;;-141.50;100.00;63355.56;5015374;28;20054;-77
2024/03/06 11:02:22;;;;;;;43.90;20.85;;;;;;;-141.50;100.00;63355.56;4997343;28;20122;-80
2024/03/06 11:04:51;;;;;;;46.90;20.55;;;;;;;-141.50;100.00;63355.56;4993359;28;20706;-78